sensor_id;sensor_type;location;lat;lon;timestamp;P1;durP1;ratioP1;P2;durP2;ratioP2
7233;SDS011;3658;47.992;10.158;2023-02-18T00:01:26;2.10;;;1.50;;
7233;SDS011;3658;47.992;10.158;2023-02-18T00:03:54;2.00;;;1.80;;
7233;SDS011;3658;47.992;10.158;2023-02-18T00:06:24;1.63;;;1.40;;
7233;SDS011;3658;47.992;10.158;2023-02-18T00:08:52;3.13;;;2.00;;
7233;SDS011;3658;47.992;10.158;2023-02-18T00:11:21;2.43;;;1.80;;
7233;SDS011;3658;47.992;10.158;2023-02-18T00:13:50;2.10;;;1.70;;
7233;SDS011;3658;47.992;10.158;2023-02-18T00:16:18;1.87;;;1.60;;
7233;SDS011;3658;47.992;10.158;2023-02-18T00:18:46;1.73;;;1.63;;
7233;SDS011;3658;47.992;10.158;2023-02-18T00:21:14;2.23;;;1.83;;
7233;SDS011;3658;47.992;10.158;2023-02-18T00:23:41;2.70;;;1.60;;
7233;SDS011;3658;47.992;10.158;2023-02-18T00:26:09;1.60;;;1.50;;
7233;SDS011;3658;47.992;10.158;2023-02-18T00:28:39;2.17;;;1.70;;
7233;SDS011;3658;47.992;10.158;2023-02-18T00:31:08;1.53;;;1.40;;
7233;SDS011;3658;47.992;10.158;2023-02-18T00:33:36;2.13;;;1.60;;
7233;SDS011;3658;47.992;10.158;2023-02-18T00:36:04;2.10;;;1.70;;
7233;SDS011;3658;47.992;10.158;2023-02-18T00:38:32;5.00;;;1.63;;
7233;SDS011;3658;47.992;10.158;2023-02-18T00:40:59;2.07;;;1.63;;
7233;SDS011;3658;47.992;10.158;2023-02-18T00:43:27;1.50;;;1.40;;
7233;SDS011;3658;47.992;10.158;2023-02-18T00:45:54;2.33;;;1.60;;
7233;SDS011;3658;47.992;10.158;2023-02-18T00:48:22;1.73;;;1.50;;
7233;SDS011;3658;47.992;10.158;2023-02-18T00:50:49;2.33;;;1.50;;
7233;SDS011;3658;47.992;10.158;2023-02-18T00:53:16;1.70;;;1.40;;
7233;SDS011;3658;47.992;10.158;2023-02-18T00:55:43;1.40;;;1.30;;
7233;SDS011;3658;47.992;10.158;2023-02-18T00:58:12;2.00;;;1.47;;
7233;SDS011;3658;47.992;10.158;2023-02-18T01:00:39;1.53;;;1.40;;
7233;SDS011;3658;47.992;10.158;2023-02-18T01:03:06;1.70;;;1.53;;
7233;SDS011;3658;47.992;10.158;2023-02-18T01:05:35;1.60;;;1.40;;
7233;SDS011;3658;47.992;10.158;2023-02-18T01:08:03;2.57;;;1.50;;
7233;SDS011;3658;47.992;10.158;2023-02-18T01:10:30;1.63;;;1.50;;
7233;SDS011;3658;47.992;10.158;2023-02-18T01:12:57;1.60;;;1.50;;
7233;SDS011;3658;47.992;10.158;2023-02-18T01:15:24;2.70;;;1.57;;
7233;SDS011;3658;47.992;10.158;2023-02-18T01:17:51;1.70;;;1.60;;
7233;SDS011;3658;47.992;10.158;2023-02-18T01:20:18;1.50;;;1.40;;
7233;SDS011;3658;47.992;10.158;2023-02-18T01:22:47;1.40;;;1.30;;
7233;SDS011;3658;47.992;10.158;2023-02-18T01:25:14;2.07;;;1.57;;
7233;SDS011;3658;47.992;10.158;2023-02-18T01:27:41;1.40;;;1.30;;
7233;SDS011;3658;47.992;10.158;2023-02-18T01:30:09;1.57;;;1.43;;
7233;SDS011;3658;47.992;10.158;2023-02-18T01:32:39;1.47;;;1.37;;
7233;SDS011;3658;47.992;10.158;2023-02-18T01:35:06;1.60;;;1.50;;
7233;SDS011;3658;47.992;10.158;2023-02-18T01:37:36;1.43;;;1.33;;
7233;SDS011;3658;47.992;10.158;2023-02-18T01:40:05;1.83;;;1.40;;
7233;SDS011;3658;47.992;10.158;2023-02-18T01:42:33;1.43;;;1.33;;
7233;SDS011;3658;47.992;10.158;2023-02-18T01:48:07;1.30;;;1.20;;
7233;SDS011;3658;47.992;10.158;2023-02-18T01:50:37;1.57;;;1.47;;
7233;SDS011;3658;47.992;10.158;2023-02-18T01:53:08;1.20;;;1.10;;
7233;SDS011;3658;47.992;10.158;2023-02-18T01:55:38;1.73;;;1.50;;
7233;SDS011;3658;47.992;10.158;2023-02-18T01:58:05;1.40;;;1.30;;
7233;SDS011;3658;47.992;10.158;2023-02-18T02:00:32;1.50;;;1.40;;
7233;SDS011;3658;47.992;10.158;2023-02-18T02:03:01;1.40;;;1.30;;
7233;SDS011;3658;47.992;10.158;2023-02-18T02:05:30;1.60;;;1.50;;
7233;SDS011;3658;47.992;10.158;2023-02-18T02:07:58;1.30;;;1.20;;
7233;SDS011;3658;47.992;10.158;2023-02-18T02:10:27;1.40;;;1.30;;
7233;SDS011;3658;47.992;10.158;2023-02-18T02:13:05;2.53;;;1.37;;
7233;SDS011;3658;47.992;10.158;2023-02-18T02:15:40;1.53;;;1.30;;
7233;SDS011;3658;47.992;10.158;2023-02-18T02:18:24;1.40;;;1.30;;
7233;SDS011;3658;47.992;10.158;2023-02-18T02:21:12;1.40;;;1.30;;
7233;SDS011;3658;47.992;10.158;2023-02-18T02:24:11;1.60;;;1.20;;
7233;SDS011;3658;47.992;10.158;2023-02-18T02:27:05;1.30;;;1.20;;
7233;SDS011;3658;47.992;10.158;2023-02-18T02:30:03;1.30;;;1.20;;
7233;SDS011;3658;47.992;10.158;2023-02-18T02:32:57;0.90;;;0.90;;
7233;SDS011;3658;47.992;10.158;2023-02-18T02:35:53;1.30;;;1.20;;
7233;SDS011;3658;47.992;10.158;2023-02-18T02:38:27;1.37;;;1.27;;
7233;SDS011;3658;47.992;10.158;2023-02-18T02:41:01;1.33;;;1.23;;
7233;SDS011;3658;47.992;10.158;2023-02-18T02:43:37;2.13;;;1.50;;
7233;SDS011;3658;47.992;10.158;2023-02-18T02:46:16;1.53;;;1.27;;
7233;SDS011;3658;47.992;10.158;2023-02-18T02:48:47;1.20;;;1.10;;
7233;SDS011;3658;47.992;10.158;2023-02-18T02:51:23;1.20;;;1.10;;
7233;SDS011;3658;47.992;10.158;2023-02-18T02:53:55;1.27;;;1.17;;
7233;SDS011;3658;47.992;10.158;2023-02-18T02:56:35;1.40;;;1.30;;
7233;SDS011;3658;47.992;10.158;2023-02-18T02:59:03;1.63;;;1.40;;
7233;SDS011;3658;47.992;10.158;2023-02-18T03:01:35;1.47;;;1.20;;
7233;SDS011;3658;47.992;10.158;2023-02-18T03:04:26;1.33;;;1.23;;
7233;SDS011;3658;47.992;10.158;2023-02-18T03:07:18;1.30;;;1.20;;
7233;SDS011;3658;47.992;10.158;2023-02-18T03:10:09;1.13;;;1.03;;
7233;SDS011;3658;47.992;10.158;2023-02-18T03:12:47;1.20;;;1.10;;
7233;SDS011;3658;47.992;10.158;2023-02-18T03:15:20;1.07;;;1.07;;
7233;SDS011;3658;47.992;10.158;2023-02-18T03:17:51;1.47;;;1.30;;
7233;SDS011;3658;47.992;10.158;2023-02-18T03:20:24;1.73;;;1.47;;
7233;SDS011;3658;47.992;10.158;2023-02-18T03:22:55;1.80;;;1.30;;
7233;SDS011;3658;47.992;10.158;2023-02-18T03:25:25;1.70;;;1.30;;
7233;SDS011;3658;47.992;10.158;2023-02-18T03:27:54;1.30;;;1.20;;
7233;SDS011;3658;47.992;10.158;2023-02-18T03:30:25;1.53;;;1.30;;
7233;SDS011;3658;47.992;10.158;2023-02-18T03:32:56;1.17;;;1.10;;
7233;SDS011;3658;47.992;10.158;2023-02-18T03:35:25;1.23;;;1.13;;
7233;SDS011;3658;47.992;10.158;2023-02-18T03:37:54;1.30;;;1.20;;
7233;SDS011;3658;47.992;10.158;2023-02-18T03:40:27;1.30;;;1.20;;
7233;SDS011;3658;47.992;10.158;2023-02-18T03:42:55;1.07;;;1.07;;
7233;SDS011;3658;47.992;10.158;2023-02-18T03:45:23;1.30;;;1.20;;
7233;SDS011;3658;47.992;10.158;2023-02-18T03:47:50;1.50;;;1.30;;
7233;SDS011;3658;47.992;10.158;2023-02-18T03:50:18;1.40;;;1.30;;
7233;SDS011;3658;47.992;10.158;2023-02-18T03:52:45;1.30;;;1.20;;
7233;SDS011;3658;47.992;10.158;2023-02-18T03:55:13;1.20;;;1.10;;
7233;SDS011;3658;47.992;10.158;2023-02-18T03:57:40;1.30;;;1.20;;
7233;SDS011;3658;47.992;10.158;2023-02-18T04:00:08;1.20;;;1.10;;
7233;SDS011;3658;47.992;10.158;2023-02-18T04:02:36;1.47;;;1.20;;
7233;SDS011;3658;47.992;10.158;2023-02-18T04:05:03;1.20;;;1.10;;
7233;SDS011;3658;47.992;10.158;2023-02-18T04:07:31;1.30;;;1.20;;
7233;SDS011;3658;47.992;10.158;2023-02-18T04:09:58;1.47;;;1.13;;
7233;SDS011;3658;47.992;10.158;2023-02-18T04:12:26;1.27;;;1.17;;
7233;SDS011;3658;47.992;10.158;2023-02-18T04:14:53;1.23;;;1.10;;
7233;SDS011;3658;47.992;10.158;2023-02-18T04:17:20;1.20;;;1.10;;
7233;SDS011;3658;47.992;10.158;2023-02-18T04:19:47;2.10;;;1.00;;
7233;SDS011;3658;47.992;10.158;2023-02-18T04:22:14;0.90;;;0.90;;
7233;SDS011;3658;47.992;10.158;2023-02-18T04:24:41;1.47;;;1.00;;
7233;SDS011;3658;47.992;10.158;2023-02-18T04:27:08;1.00;;;1.00;;
7233;SDS011;3658;47.992;10.158;2023-02-18T04:29:37;1.00;;;1.00;;
7233;SDS011;3658;47.992;10.158;2023-02-18T04:32:04;0.90;;;0.90;;
7233;SDS011;3658;47.992;10.158;2023-02-18T04:34:31;1.10;;;1.00;;
7233;SDS011;3658;47.992;10.158;2023-02-18T04:36:58;1.00;;;1.00;;
7233;SDS011;3658;47.992;10.158;2023-02-18T04:39:25;1.00;;;1.00;;
7233;SDS011;3658;47.992;10.158;2023-02-18T04:41:52;0.97;;;0.97;;
7233;SDS011;3658;47.992;10.158;2023-02-18T04:44:18;0.90;;;0.90;;
7233;SDS011;3658;47.992;10.158;2023-02-18T04:46:47;1.00;;;0.90;;
7233;SDS011;3658;47.992;10.158;2023-02-18T04:49:14;0.97;;;0.97;;
7233;SDS011;3658;47.992;10.158;2023-02-18T04:51:41;1.13;;;1.03;;
7233;SDS011;3658;47.992;10.158;2023-02-18T04:54:08;1.20;;;1.10;;
7233;SDS011;3658;47.992;10.158;2023-02-18T04:56:35;0.90;;;0.90;;
7233;SDS011;3658;47.992;10.158;2023-02-18T04:59:02;0.90;;;0.90;;
7233;SDS011;3658;47.992;10.158;2023-02-18T05:01:29;0.80;;;0.80;;
7233;SDS011;3658;47.992;10.158;2023-02-18T05:03:57;0.90;;;0.90;;
7233;SDS011;3658;47.992;10.158;2023-02-18T05:06:24;0.87;;;0.87;;
7233;SDS011;3658;47.992;10.158;2023-02-18T05:08:51;1.07;;;1.03;;
7233;SDS011;3658;47.992;10.158;2023-02-18T05:11:18;0.90;;;0.90;;
7233;SDS011;3658;47.992;10.158;2023-02-18T05:13:45;1.10;;;1.00;;
7233;SDS011;3658;47.992;10.158;2023-02-18T05:16:12;0.90;;;0.90;;
7233;SDS011;3658;47.992;10.158;2023-02-18T05:18:39;0.90;;;0.90;;
7233;SDS011;3658;47.992;10.158;2023-02-18T05:21:07;0.87;;;0.87;;
7233;SDS011;3658;47.992;10.158;2023-02-18T05:23:36;0.93;;;0.93;;
7233;SDS011;3658;47.992;10.158;2023-02-18T05:26:03;1.00;;;0.90;;
7233;SDS011;3658;47.992;10.158;2023-02-18T05:28:30;0.80;;;0.80;;
7233;SDS011;3658;47.992;10.158;2023-02-18T05:30:57;0.90;;;0.90;;
7233;SDS011;3658;47.992;10.158;2023-02-18T05:33:24;0.97;;;0.90;;
7233;SDS011;3658;47.992;10.158;2023-02-18T05:35:51;0.90;;;0.90;;
7233;SDS011;3658;47.992;10.158;2023-02-18T05:38:19;0.73;;;0.73;;
7233;SDS011;3658;47.992;10.158;2023-02-18T05:40:46;1.00;;;0.90;;
7233;SDS011;3658;47.992;10.158;2023-02-18T05:43:13;1.10;;;1.00;;
7233;SDS011;3658;47.992;10.158;2023-02-18T05:45:40;0.90;;;0.90;;
7233;SDS011;3658;47.992;10.158;2023-02-18T05:48:07;1.20;;;1.10;;
7233;SDS011;3658;47.992;10.158;2023-02-18T05:50:34;0.90;;;0.90;;
7233;SDS011;3658;47.992;10.158;2023-02-18T05:53:01;0.77;;;0.77;;
7233;SDS011;3658;47.992;10.158;2023-02-18T05:55:30;0.90;;;0.90;;
7233;SDS011;3658;47.992;10.158;2023-02-18T05:57:57;0.90;;;0.90;;
7233;SDS011;3658;47.992;10.158;2023-02-18T06:00:24;1.00;;;1.00;;
7233;SDS011;3658;47.992;10.158;2023-02-18T06:02:51;0.90;;;0.90;;
7233;SDS011;3658;47.992;10.158;2023-02-18T06:05:18;1.10;;;1.00;;
7233;SDS011;3658;47.992;10.158;2023-02-18T06:07:45;0.93;;;0.93;;
7233;SDS011;3658;47.992;10.158;2023-02-18T06:10:12;0.80;;;0.80;;
7233;SDS011;3658;47.992;10.158;2023-02-18T06:12:40;0.80;;;0.80;;
7233;SDS011;3658;47.992;10.158;2023-02-18T06:15:07;0.80;;;0.80;;
7233;SDS011;3658;47.992;10.158;2023-02-18T06:17:34;0.70;;;0.70;;
7233;SDS011;3658;47.992;10.158;2023-02-18T06:20:02;0.80;;;0.80;;
7233;SDS011;3658;47.992;10.158;2023-02-18T06:22:29;0.80;;;0.80;;
7233;SDS011;3658;47.992;10.158;2023-02-18T06:24:56;0.70;;;0.70;;
7233;SDS011;3658;47.992;10.158;2023-02-18T06:27:23;0.80;;;0.80;;
7233;SDS011;3658;47.992;10.158;2023-02-18T06:29:51;0.70;;;0.70;;
7233;SDS011;3658;47.992;10.158;2023-02-18T06:32:18;0.80;;;0.80;;
7233;SDS011;3658;47.992;10.158;2023-02-18T06:34:45;0.83;;;0.83;;
7233;SDS011;3658;47.992;10.158;2023-02-18T06:37:12;0.90;;;0.90;;
7233;SDS011;3658;47.992;10.158;2023-02-18T06:39:39;0.70;;;0.70;;
7233;SDS011;3658;47.992;10.158;2023-02-18T06:42:06;0.80;;;0.80;;
7233;SDS011;3658;47.992;10.158;2023-02-18T06:44:33;0.80;;;0.80;;
7233;SDS011;3658;47.992;10.158;2023-02-18T06:47:01;1.00;;;1.00;;
7233;SDS011;3658;47.992;10.158;2023-02-18T06:49:28;0.70;;;0.70;;
7233;SDS011;3658;47.992;10.158;2023-02-18T06:51:55;0.80;;;0.80;;
7233;SDS011;3658;47.992;10.158;2023-02-18T06:54:22;0.90;;;0.90;;
7233;SDS011;3658;47.992;10.158;2023-02-18T06:56:49;0.77;;;0.77;;
7233;SDS011;3658;47.992;10.158;2023-02-18T06:59:16;0.90;;;0.90;;
7233;SDS011;3658;47.992;10.158;2023-02-18T07:01:43;0.80;;;0.80;;
7233;SDS011;3658;47.992;10.158;2023-02-18T07:04:12;0.77;;;0.77;;
7233;SDS011;3658;47.992;10.158;2023-02-18T07:06:39;0.70;;;0.70;;
7233;SDS011;3658;47.992;10.158;2023-02-18T07:09:06;0.90;;;0.90;;
7233;SDS011;3658;47.992;10.158;2023-02-18T07:11:33;0.87;;;0.87;;
7233;SDS011;3658;47.992;10.158;2023-02-18T07:14:00;0.80;;;0.80;;
7233;SDS011;3658;47.992;10.158;2023-02-18T07:16:27;2.03;;;0.97;;
7233;SDS011;3658;47.992;10.158;2023-02-18T07:18:54;0.90;;;0.90;;
7233;SDS011;3658;47.992;10.158;2023-02-18T07:21:23;0.73;;;0.73;;
7233;SDS011;3658;47.992;10.158;2023-02-18T07:23:50;0.80;;;0.80;;
7233;SDS011;3658;47.992;10.158;2023-02-18T07:26:17;0.90;;;0.90;;
7233;SDS011;3658;47.992;10.158;2023-02-18T07:28:44;1.27;;;0.90;;
7233;SDS011;3658;47.992;10.158;2023-02-18T07:31:12;0.80;;;0.80;;
7233;SDS011;3658;47.992;10.158;2023-02-18T07:33:39;0.80;;;0.80;;
7233;SDS011;3658;47.992;10.158;2023-02-18T07:36:07;0.90;;;0.90;;
7233;SDS011;3658;47.992;10.158;2023-02-18T07:38:35;0.90;;;0.90;;
7233;SDS011;3658;47.992;10.158;2023-02-18T07:41:02;0.80;;;0.80;;
7233;SDS011;3658;47.992;10.158;2023-02-18T07:43:30;0.80;;;0.80;;
7233;SDS011;3658;47.992;10.158;2023-02-18T07:45:57;0.87;;;0.87;;
7233;SDS011;3658;47.992;10.158;2023-02-18T07:48:24;0.80;;;0.80;;
7233;SDS011;3658;47.992;10.158;2023-02-18T07:50:51;0.70;;;0.70;;
7233;SDS011;3658;47.992;10.158;2023-02-18T07:53:18;0.80;;;0.80;;
7233;SDS011;3658;47.992;10.158;2023-02-18T07:55:46;1.30;;;1.00;;
7233;SDS011;3658;47.992;10.158;2023-02-18T07:58:16;3.83;;;1.10;;
7233;SDS011;3658;47.992;10.158;2023-02-18T08:00:44;2.57;;;1.00;;
7233;SDS011;3658;47.992;10.158;2023-02-18T08:03:13;1.43;;;0.90;;
7233;SDS011;3658;47.992;10.158;2023-02-18T08:05:41;0.80;;;0.80;;
7233;SDS011;3658;47.992;10.158;2023-02-18T08:08:09;2.20;;;0.93;;
7233;SDS011;3658;47.992;10.158;2023-02-18T08:10:38;1.10;;;1.00;;
7233;SDS011;3658;47.992;10.158;2023-02-18T08:13:07;0.93;;;0.77;;
7233;SDS011;3658;47.992;10.158;2023-02-18T08:15:35;2.17;;;0.80;;
7233;SDS011;3658;47.992;10.158;2023-02-18T08:18:02;0.80;;;0.80;;
7233;SDS011;3658;47.992;10.158;2023-02-18T08:20:29;0.97;;;0.83;;
7233;SDS011;3658;47.992;10.158;2023-02-18T08:22:56;1.00;;;0.90;;
7233;SDS011;3658;47.992;10.158;2023-02-18T08:25:23;3.07;;;1.37;;
7233;SDS011;3658;47.992;10.158;2023-02-18T08:27:50;1.17;;;0.97;;
7233;SDS011;3658;47.992;10.158;2023-02-18T08:30:19;1.37;;;0.80;;
7233;SDS011;3658;47.992;10.158;2023-02-18T08:32:46;1.63;;;0.93;;
7233;SDS011;3658;47.992;10.158;2023-02-18T08:35:13;1.00;;;0.90;;
7233;SDS011;3658;47.992;10.158;2023-02-18T08:37:40;1.97;;;0.80;;
7233;SDS011;3658;47.992;10.158;2023-02-18T08:40:07;1.23;;;0.93;;
7233;SDS011;3658;47.992;10.158;2023-02-18T08:42:36;1.67;;;0.87;;
7233;SDS011;3658;47.992;10.158;2023-02-18T08:45:04;0.90;;;0.90;;
7233;SDS011;3658;47.992;10.158;2023-02-18T08:47:33;1.50;;;1.00;;
7233;SDS011;3658;47.992;10.158;2023-02-18T08:50:00;1.20;;;1.10;;
7233;SDS011;3658;47.992;10.158;2023-02-18T08:52:27;1.63;;;1.27;;
7233;SDS011;3658;47.992;10.158;2023-02-18T08:54:54;1.33;;;1.00;;
7233;SDS011;3658;47.992;10.158;2023-02-18T08:57:21;1.57;;;1.10;;
7233;SDS011;3658;47.992;10.158;2023-02-18T08:59:48;0.80;;;0.80;;
7233;SDS011;3658;47.992;10.158;2023-02-18T09:02:15;1.10;;;1.00;;
7233;SDS011;3658;47.992;10.158;2023-02-18T09:04:44;2.30;;;1.00;;
7233;SDS011;3658;47.992;10.158;2023-02-18T09:07:11;2.33;;;1.17;;
7233;SDS011;3658;47.992;10.158;2023-02-18T09:09:38;2.53;;;1.13;;
7233;SDS011;3658;47.992;10.158;2023-02-18T09:12:06;2.00;;;1.10;;
7233;SDS011;3658;47.992;10.158;2023-02-18T09:14:33;0.90;;;0.90;;
7233;SDS011;3658;47.992;10.158;2023-02-18T09:17:00;1.20;;;1.10;;
7233;SDS011;3658;47.992;10.158;2023-02-18T09:19:27;1.90;;;1.00;;
7233;SDS011;3658;47.992;10.158;2023-02-18T09:21:58;0.90;;;0.90;;
7233;SDS011;3658;47.992;10.158;2023-02-18T09:24:25;2.00;;;1.00;;
7233;SDS011;3658;47.992;10.158;2023-02-18T09:26:52;1.50;;;1.00;;
7233;SDS011;3658;47.992;10.158;2023-02-18T09:29:19;2.97;;;0.80;;
7233;SDS011;3658;47.992;10.158;2023-02-18T09:31:47;2.70;;;1.00;;
7233;SDS011;3658;47.992;10.158;2023-02-18T09:34:15;0.90;;;0.90;;
7233;SDS011;3658;47.992;10.158;2023-02-18T09:36:42;1.20;;;1.00;;
7233;SDS011;3658;47.992;10.158;2023-02-18T09:39:10;1.30;;;1.03;;
7233;SDS011;3658;47.992;10.158;2023-02-18T09:41:38;1.23;;;1.00;;
7233;SDS011;3658;47.992;10.158;2023-02-18T09:44:10;0.93;;;0.93;;
7233;SDS011;3658;47.992;10.158;2023-02-18T09:46:42;1.03;;;0.83;;
7233;SDS011;3658;47.992;10.158;2023-02-18T09:49:14;0.90;;;0.90;;
7233;SDS011;3658;47.992;10.158;2023-02-18T09:51:44;1.23;;;0.90;;
7233;SDS011;3658;47.992;10.158;2023-02-18T09:54:14;1.20;;;1.10;;
7233;SDS011;3658;47.992;10.158;2023-02-18T09:56:43;1.10;;;1.00;;
7233;SDS011;3658;47.992;10.158;2023-02-18T09:59:12;1.00;;;1.00;;
7233;SDS011;3658;47.992;10.158;2023-02-18T10:01:42;0.90;;;0.90;;
7233;SDS011;3658;47.992;10.158;2023-02-18T10:04:12;1.27;;;1.00;;
7233;SDS011;3658;47.992;10.158;2023-02-18T10:06:45;2.20;;;0.73;;
7233;SDS011;3658;47.992;10.158;2023-02-18T10:09:17;0.80;;;0.70;;
7233;SDS011;3658;47.992;10.158;2023-02-18T10:11:47;2.47;;;1.00;;
7233;SDS011;3658;47.992;10.158;2023-02-18T10:14:17;0.80;;;0.80;;
7233;SDS011;3658;47.992;10.158;2023-02-18T10:16:45;1.30;;;1.10;;
7233;SDS011;3658;47.992;10.158;2023-02-18T10:19:18;2.77;;;0.90;;
7233;SDS011;3658;47.992;10.158;2023-02-18T10:21:48;1.00;;;0.90;;
7233;SDS011;3658;47.992;10.158;2023-02-18T10:24:21;0.80;;;0.80;;
7233;SDS011;3658;47.992;10.158;2023-02-18T10:26:53;0.97;;;0.87;;
7233;SDS011;3658;47.992;10.158;2023-02-18T10:29:21;0.70;;;0.70;;
7233;SDS011;3658;47.992;10.158;2023-02-18T10:31:51;3.60;;;0.90;;
7233;SDS011;3658;47.992;10.158;2023-02-18T10:34:23;0.93;;;0.90;;
7233;SDS011;3658;47.992;10.158;2023-02-18T10:37:04;1.10;;;0.90;;
7233;SDS011;3658;47.992;10.158;2023-02-18T10:39:44;1.20;;;1.10;;
7233;SDS011;3658;47.992;10.158;2023-02-18T10:42:20;1.23;;;0.90;;
7233;SDS011;3658;47.992;10.158;2023-02-18T10:44:58;1.03;;;1.00;;
7233;SDS011;3658;47.992;10.158;2023-02-18T10:47:34;1.00;;;0.97;;
7233;SDS011;3658;47.992;10.158;2023-02-18T10:50:07;2.27;;;0.90;;
7233;SDS011;3658;47.992;10.158;2023-02-18T10:52:39;0.80;;;0.80;;
7233;SDS011;3658;47.992;10.158;2023-02-18T10:55:10;0.80;;;0.80;;
7233;SDS011;3658;47.992;10.158;2023-02-18T10:57:46;0.93;;;0.90;;
7233;SDS011;3658;47.992;10.158;2023-02-18T11:00:15;1.33;;;0.87;;
7233;SDS011;3658;47.992;10.158;2023-02-18T11:02:59;0.80;;;0.80;;
7233;SDS011;3658;47.992;10.158;2023-02-18T11:05:28;0.97;;;0.97;;
7233;SDS011;3658;47.992;10.158;2023-02-18T11:07:55;0.60;;;0.60;;
7233;SDS011;3658;47.992;10.158;2023-02-18T11:10:25;3.03;;;1.10;;
7233;SDS011;3658;47.992;10.158;2023-02-18T11:12:56;1.37;;;1.10;;
7233;SDS011;3658;47.992;10.158;2023-02-18T11:15:26;3.77;;;0.90;;
7233;SDS011;3658;47.992;10.158;2023-02-18T11:17:54;1.20;;;1.10;;
7233;SDS011;3658;47.992;10.158;2023-02-18T11:20:24;1.17;;;0.77;;
7233;SDS011;3658;47.992;10.158;2023-02-18T11:22:56;3.20;;;1.10;;
7233;SDS011;3658;47.992;10.158;2023-02-18T11:25:26;3.43;;;1.47;;
7233;SDS011;3658;47.992;10.158;2023-02-18T11:27:58;1.37;;;1.00;;
7233;SDS011;3658;47.992;10.158;2023-02-18T11:33:47;1.13;;;1.03;;
7233;SDS011;3658;47.992;10.158;2023-02-18T11:36:19;0.90;;;0.90;;
7233;SDS011;3658;47.992;10.158;2023-02-18T11:38:50;2.93;;;1.07;;
7233;SDS011;3658;47.992;10.158;2023-02-18T11:41:21;1.43;;;1.10;;
7233;SDS011;3658;47.992;10.158;2023-02-18T11:43:55;1.20;;;1.10;;
7233;SDS011;3658;47.992;10.158;2023-02-18T11:46:24;1.60;;;1.07;;
7233;SDS011;3658;47.992;10.158;2023-02-18T11:48:52;2.40;;;1.00;;
7233;SDS011;3658;47.992;10.158;2023-02-18T11:51:20;3.40;;;1.10;;
7233;SDS011;3658;47.992;10.158;2023-02-18T11:53:59;1.43;;;1.10;;
7233;SDS011;3658;47.992;10.158;2023-02-18T11:56:30;1.17;;;1.03;;
7233;SDS011;3658;47.992;10.158;2023-02-18T11:58:59;2.07;;;1.40;;
7233;SDS011;3658;47.992;10.158;2023-02-18T12:01:40;1.30;;;1.20;;
7233;SDS011;3658;47.992;10.158;2023-02-18T12:04:11;2.30;;;1.00;;
7233;SDS011;3658;47.992;10.158;2023-02-18T12:06:44;2.00;;;1.10;;
7233;SDS011;3658;47.992;10.158;2023-02-18T12:09:19;3.73;;;1.10;;
7233;SDS011;3658;47.992;10.158;2023-02-18T12:11:54;1.90;;;1.00;;
7233;SDS011;3658;47.992;10.158;2023-02-18T12:14:23;1.00;;;0.90;;
7233;SDS011;3658;47.992;10.158;2023-02-18T12:16:56;1.37;;;1.13;;
7233;SDS011;3658;47.992;10.158;2023-02-18T12:20:00;0.87;;;0.80;;
7233;SDS011;3658;47.992;10.158;2023-02-18T12:22:40;1.30;;;0.83;;
7233;SDS011;3658;47.992;10.158;2023-02-18T12:25:19;0.93;;;0.90;;
7233;SDS011;3658;47.992;10.158;2023-02-18T12:27:59;1.73;;;0.90;;
7233;SDS011;3658;47.992;10.158;2023-02-18T12:33:44;0.87;;;0.87;;
7233;SDS011;3658;47.992;10.158;2023-02-18T12:36:23;1.13;;;1.00;;
7233;SDS011;3658;47.992;10.158;2023-02-18T12:39:07;1.13;;;0.90;;
7233;SDS011;3658;47.992;10.158;2023-02-18T12:41:40;0.87;;;0.87;;
7233;SDS011;3658;47.992;10.158;2023-02-18T12:44:29;0.97;;;0.97;;
7233;SDS011;3658;47.992;10.158;2023-02-18T12:47:09;2.23;;;1.10;;
7233;SDS011;3658;47.992;10.158;2023-02-18T12:53:01;2.27;;;1.10;;
7233;SDS011;3658;47.992;10.158;2023-02-18T12:55:51;3.43;;;1.20;;
7233;SDS011;3658;47.992;10.158;2023-02-18T12:58:30;4.20;;;1.10;;
7233;SDS011;3658;47.992;10.158;2023-02-18T13:01:15;4.13;;;1.00;;
7233;SDS011;3658;47.992;10.158;2023-02-18T13:03:58;2.70;;;1.13;;
7233;SDS011;3658;47.992;10.158;2023-02-18T13:09:46;1.00;;;0.90;;
7233;SDS011;3658;47.992;10.158;2023-02-18T13:12:27;3.67;;;1.20;;
7233;SDS011;3658;47.992;10.158;2023-02-18T13:15:02;4.43;;;1.07;;
7233;SDS011;3658;47.992;10.158;2023-02-18T13:17:39;2.57;;;1.00;;
7233;SDS011;3658;47.992;10.158;2023-02-18T13:20:11;2.20;;;1.10;;
7233;SDS011;3658;47.992;10.158;2023-02-18T13:22:42;2.97;;;1.20;;
7233;SDS011;3658;47.992;10.158;2023-02-18T13:25:11;2.37;;;1.20;;
7233;SDS011;3658;47.992;10.158;2023-02-18T13:27:40;6.17;;;1.20;;
7233;SDS011;3658;47.992;10.158;2023-02-18T13:30:15;2.53;;;0.90;;
7233;SDS011;3658;47.992;10.158;2023-02-18T13:32:56;2.60;;;1.40;;
7233;SDS011;3658;47.992;10.158;2023-02-18T13:35:32;1.10;;;1.00;;
7233;SDS011;3658;47.992;10.158;2023-02-18T13:38:10;1.47;;;1.10;;
7233;SDS011;3658;47.992;10.158;2023-02-18T13:40:51;3.73;;;1.40;;
7233;SDS011;3658;47.992;10.158;2023-02-18T13:43:27;2.70;;;1.20;;
7233;SDS011;3658;47.992;10.158;2023-02-18T13:46:02;3.07;;;1.00;;
7233;SDS011;3658;47.992;10.158;2023-02-18T13:48:37;2.70;;;1.00;;
7233;SDS011;3658;47.992;10.158;2023-02-18T13:51:10;8.30;;;1.23;;
7233;SDS011;3658;47.992;10.158;2023-02-18T13:53:39;9.60;;;1.20;;
7233;SDS011;3658;47.992;10.158;2023-02-18T13:56:16;4.20;;;1.00;;
7233;SDS011;3658;47.992;10.158;2023-02-18T13:58:47;5.83;;;1.10;;
7233;SDS011;3658;47.992;10.158;2023-02-18T14:01:21;2.93;;;1.07;;
7233;SDS011;3658;47.992;10.158;2023-02-18T14:03:53;2.80;;;0.97;;
7233;SDS011;3658;47.992;10.158;2023-02-18T14:06:26;1.60;;;1.00;;
7233;SDS011;3658;47.992;10.158;2023-02-18T14:09:03;3.80;;;1.03;;
7233;SDS011;3658;47.992;10.158;2023-02-18T14:12:14;1.07;;;1.00;;
7233;SDS011;3658;47.992;10.158;2023-02-18T14:14:52;2.23;;;1.10;;
7233;SDS011;3658;47.992;10.158;2023-02-18T14:17:29;2.57;;;1.00;;
7233;SDS011;3658;47.992;10.158;2023-02-18T14:26:23;3.23;;;1.00;;
7233;SDS011;3658;47.992;10.158;2023-02-18T14:28:54;0.83;;;0.83;;
7233;SDS011;3658;47.992;10.158;2023-02-18T14:37:18;4.03;;;1.00;;
7233;SDS011;3658;47.992;10.158;2023-02-18T14:40:00;0.70;;;0.70;;
7233;SDS011;3658;47.992;10.158;2023-02-18T14:42:42;2.47;;;1.10;;
7233;SDS011;3658;47.992;10.158;2023-02-18T14:45:18;1.03;;;0.90;;
7233;SDS011;3658;47.992;10.158;2023-02-18T14:48:05;5.90;;;1.20;;
7233;SDS011;3658;47.992;10.158;2023-02-18T14:50:54;4.93;;;1.07;;
7233;SDS011;3658;47.992;10.158;2023-02-18T14:53:24;1.27;;;1.03;;
7233;SDS011;3658;47.992;10.158;2023-02-18T14:55:52;4.10;;;0.97;;
7233;SDS011;3658;47.992;10.158;2023-02-18T14:58:27;2.77;;;1.00;;
7233;SDS011;3658;47.992;10.158;2023-02-18T15:00:56;3.70;;;1.10;;
7233;SDS011;3658;47.992;10.158;2023-02-18T15:03:30;0.87;;;0.80;;
7233;SDS011;3658;47.992;10.158;2023-02-18T15:05:57;1.07;;;0.90;;
7233;SDS011;3658;47.992;10.158;2023-02-18T15:08:24;1.90;;;0.90;;
7233;SDS011;3658;47.992;10.158;2023-02-18T15:10:52;2.63;;;1.00;;
7233;SDS011;3658;47.992;10.158;2023-02-18T15:13:24;4.00;;;1.10;;
7233;SDS011;3658;47.992;10.158;2023-02-18T15:15:56;1.60;;;0.93;;
7233;SDS011;3658;47.992;10.158;2023-02-18T15:18:27;3.67;;;0.90;;
7233;SDS011;3658;47.992;10.158;2023-02-18T15:20:58;2.03;;;1.10;;
7233;SDS011;3658;47.992;10.158;2023-02-18T15:23:26;3.93;;;1.07;;
7233;SDS011;3658;47.992;10.158;2023-02-18T15:25:55;1.00;;;0.90;;
7233;SDS011;3658;47.992;10.158;2023-02-18T15:28:24;2.47;;;0.90;;
7233;SDS011;3658;47.992;10.158;2023-02-18T15:30:55;2.00;;;0.83;;
7233;SDS011;3658;47.992;10.158;2023-02-18T15:33:23;0.90;;;0.90;;
7233;SDS011;3658;47.992;10.158;2023-02-18T15:35:50;3.07;;;1.03;;
7233;SDS011;3658;47.992;10.158;2023-02-18T15:38:18;1.60;;;1.03;;
7233;SDS011;3658;47.992;10.158;2023-02-18T15:40:47;1.20;;;1.00;;
7233;SDS011;3658;47.992;10.158;2023-02-18T15:43:17;0.87;;;0.87;;
7233;SDS011;3658;47.992;10.158;2023-02-18T15:45:48;1.10;;;1.00;;
7233;SDS011;3658;47.992;10.158;2023-02-18T15:48:22;1.00;;;0.90;;
7233;SDS011;3658;47.992;10.158;2023-02-18T15:50:54;1.30;;;0.90;;